createdAt,value
2022-10-11T00:00:53.684Z,7.00
2022-10-11T00:03:33.867Z,6.15
2022-10-11T00:06:03.827Z,7.10
2022-10-11T00:08:33.477Z,6.60
2022-10-11T00:11:05.038Z,6.63
2022-10-11T00:13:33.272Z,6.95
2022-10-11T00:16:01.210Z,6.72
2022-10-11T00:18:28.914Z,6.03
2022-10-11T00:21:06.511Z,6.43
2022-10-11T00:23:34.505Z,6.03
2022-10-11T00:26:06.687Z,5.43
2022-10-11T00:28:35.351Z,6.43
2022-10-11T00:31:07.611Z,6.88
2022-10-11T00:33:35.706Z,6.03
2022-10-11T00:36:04.331Z,5.47
2022-10-11T00:38:32.247Z,5.50
2022-10-11T00:41:00.555Z,6.28
2022-10-11T00:43:30.844Z,5.57
2022-10-11T00:45:58.247Z,5.70
2022-10-11T00:48:33.762Z,5.68
2022-10-11T00:51:06.428Z,4.38
2022-10-11T00:53:34.580Z,5.07
2022-10-11T00:56:20.677Z,5.78
2022-10-11T00:58:48.634Z,4.75
2022-10-11T01:01:16.558Z,5.18
2022-10-11T01:03:44.956Z,5.43
2022-10-11T01:06:12.687Z,4.35
2022-10-11T01:08:40.792Z,4.30
2022-10-11T01:11:17.530Z,4.18
2022-10-11T01:14:23.099Z,4.70
2022-10-11T01:16:57.859Z,4.20
2022-10-11T01:19:34.363Z,5.20
2022-10-11T01:22:42.849Z,4.22
2022-10-11T01:25:43.860Z,4.00
2022-10-11T01:28:37.218Z,4.47
2022-10-11T01:31:28.091Z,3.50
2022-10-11T01:34:32.469Z,4.18
2022-10-11T01:37:13.930Z,4.22
2022-10-11T01:39:51.828Z,4.45
2022-10-11T01:42:20.894Z,4.05
2022-10-11T01:44:49.961Z,4.20
2022-10-11T01:47:25.213Z,3.95
2022-10-11T01:50:02.157Z,3.67
2022-10-11T01:52:34.144Z,4.45
2022-10-11T01:55:28.291Z,4.60
2022-10-11T01:58:21.056Z,3.88
2022-10-11T02:01:06.798Z,3.78
2022-10-11T02:03:54.200Z,4.55
2022-10-11T02:06:56.978Z,3.67
2022-10-11T02:09:42.863Z,4.05
2022-10-11T02:12:16.441Z,4.15
2022-10-11T02:14:49.511Z,4.63
2022-10-11T02:17:24.416Z,3.92
2022-10-11T02:19:56.821Z,3.42
2022-10-11T02:22:35.717Z,4.28
2022-10-11T02:25:09.501Z,4.07
2022-10-11T02:27:41.144Z,3.55
2022-10-11T02:30:10.193Z,3.95
2022-10-11T02:32:41.821Z,3.47
2022-10-11T02:35:11.814Z,3.70
2022-10-11T02:38:02.943Z,3.63
2022-10-11T02:40:40.734Z,4.28
2022-10-11T02:43:19.593Z,4.00
2022-10-11T02:46:01.566Z,4.05
2022-10-11T02:48:30.830Z,4.13
2022-10-11T02:50:59.450Z,3.83
2022-10-11T02:53:27.296Z,3.97
2022-10-11T02:55:56.146Z,4.10
2022-10-11T02:58:24.748Z,4.57
2022-10-11T03:00:52.402Z,4.18
2022-10-11T03:03:20.232Z,4.10
2022-10-11T03:05:48.144Z,4.30
2022-10-11T03:08:17.686Z,3.90
2022-10-11T03:10:45.547Z,4.05
2022-10-11T03:13:17.859Z,3.58
2022-10-11T03:16:02.942Z,3.65
2022-10-11T03:18:34.789Z,4.53
2022-10-11T03:21:02.559Z,3.70
2022-10-11T03:23:30.137Z,4.45
2022-10-11T03:25:57.780Z,3.90
2022-10-11T03:28:25.552Z,4.00
2022-10-11T03:30:53.200Z,3.92
2022-10-11T03:33:20.837Z,3.72
2022-10-11T03:35:49.703Z,4.10
2022-10-11T03:38:22.081Z,3.83
2022-10-11T03:40:50.160Z,3.92
2022-10-11T03:43:17.794Z,3.53
2022-10-11T03:45:45.323Z,3.95
2022-10-11T03:48:13.154Z,4.35
2022-10-11T03:50:40.861Z,3.50
2022-10-11T03:53:08.935Z,3.83
2022-10-11T03:55:40.345Z,3.35
2022-10-11T03:58:09.097Z,3.63
2022-10-11T04:00:37.175Z,3.70
2022-10-11T04:03:05.025Z,4.63
2022-10-11T04:05:32.490Z,4.32
2022-10-11T04:08:00.158Z,3.90
2022-10-11T04:10:28.183Z,4.78
2022-10-11T04:12:55.800Z,3.83
2022-10-11T04:15:23.607Z,4.22
2022-10-11T04:17:51.278Z,4.53
2022-10-11T04:20:18.982Z,3.78
2022-10-11T04:22:46.465Z,4.53
2022-10-11T04:25:14.565Z,3.90
2022-10-11T04:27:42.715Z,3.83
2022-10-11T04:30:11.630Z,2.75
2022-10-11T04:32:58.062Z,3.80
2022-10-11T04:35:25.574Z,4.45
2022-10-11T04:37:53.155Z,4.03
2022-10-11T04:40:20.901Z,4.22
2022-10-11T04:42:50.645Z,4.38
2022-10-11T04:45:18.388Z,3.65
2022-10-11T04:47:46.420Z,3.92
2022-10-11T04:50:13.991Z,3.28
2022-10-11T04:52:41.537Z,3.78
2022-10-11T04:55:10.675Z,4.22
2022-10-11T04:57:38.245Z,4.85
2022-10-11T05:00:07.213Z,4.32
2022-10-11T05:02:35.338Z,4.53
2022-10-11T05:05:02.887Z,5.03
2022-10-11T05:07:30.379Z,4.55
2022-10-11T05:09:58.206Z,3.63
2022-10-11T05:12:25.805Z,4.22
2022-10-11T05:14:53.894Z,4.78
2022-10-11T05:17:22.054Z,3.67
2022-10-11T05:19:49.584Z,4.28
2022-10-11T05:22:17.059Z,4.07
2022-10-11T05:24:44.816Z,3.30
2022-10-11T05:27:12.247Z,3.20
2022-10-11T05:29:39.755Z,3.58
2022-10-11T05:32:07.720Z,3.45
2022-10-11T05:34:35.271Z,3.65
2022-10-11T05:37:03.147Z,2.65
2022-10-11T05:39:30.912Z,3.40
2022-10-11T05:41:58.427Z,3.35
2022-10-11T05:44:26.306Z,3.15
2022-10-11T05:46:53.734Z,3.63
2022-10-11T05:49:21.345Z,4.10
2022-10-11T05:51:49.038Z,3.45
2022-10-11T05:54:16.534Z,3.55
2022-10-11T05:56:44.123Z,4.07
2022-10-11T05:59:11.886Z,3.42
2022-10-11T06:01:39.658Z,5.18
2022-10-11T06:04:08.316Z,6.32
2022-10-11T06:06:36.040Z,5.85
2022-10-11T06:09:03.758Z,5.53
2022-10-11T06:11:31.239Z,5.28
2022-10-11T06:13:59.261Z,6.75
2022-10-11T06:16:27.641Z,4.97
2022-10-11T06:18:56.805Z,4.57
2022-10-11T06:23:58.242Z,4.13
2022-10-11T06:26:28.547Z,3.85
2022-10-11T06:28:56.501Z,4.45
2022-10-11T06:31:24.741Z,4.10
2022-10-11T06:33:52.263Z,5.63
2022-10-11T06:36:19.823Z,5.88
2022-10-11T06:38:47.715Z,6.05
2022-10-11T06:41:22.390Z,4.97
2022-10-11T06:43:50.954Z,5.65
2022-10-11T06:46:20.633Z,5.97
2022-10-11T06:48:49.137Z,4.90
2022-10-11T06:51:20.279Z,5.57
2022-10-11T06:53:56.449Z,4.57
2022-10-11T06:56:26.639Z,3.90
2022-10-11T06:58:56.309Z,3.65
2022-10-11T07:01:24.667Z,4.13
2022-10-11T07:03:55.423Z,4.72
2022-10-11T07:06:26.968Z,4.47
2022-10-11T07:08:55.623Z,3.55
2022-10-11T07:11:26.557Z,4.25
2022-10-11T07:14:00.620Z,4.78
2022-10-11T07:16:29.115Z,4.72
2022-10-11T07:19:01.228Z,4.30
2022-10-11T07:21:31.958Z,4.50
2022-10-11T07:24:00.395Z,4.18
2022-10-11T07:26:32.421Z,4.45
2022-10-11T07:29:01.815Z,5.38
2022-10-11T07:31:29.455Z,5.05
2022-10-11T07:33:57.069Z,5.47
2022-10-11T07:36:26.502Z,6.03
2022-10-11T07:41:22.180Z,5.28
2022-10-11T07:43:51.110Z,4.95
2022-10-11T07:46:19.100Z,6.15
2022-10-11T07:48:46.803Z,5.03
2022-10-11T07:51:21.860Z,6.05
2022-10-11T07:53:55.856Z,5.47
2022-10-11T07:56:29.221Z,6.15
2022-10-11T07:59:00.611Z,5.57
2022-10-11T08:01:29.121Z,4.80
2022-10-11T08:03:57.513Z,5.05
2022-10-11T08:06:30.249Z,5.20
2022-10-11T08:09:00.654Z,4.78
2022-10-11T08:11:46.576Z,6.40
2022-10-11T08:14:14.458Z,5.55
2022-10-11T08:16:41.987Z,5.28
2022-10-11T08:19:10.824Z,6.25
2022-10-11T08:21:38.666Z,5.90
2022-10-11T08:24:07.065Z,5.57
2022-10-11T08:26:35.674Z,6.00
2022-10-11T08:29:05.403Z,6.47
2022-10-11T08:31:35.222Z,6.20
2022-10-11T08:36:30.665Z,6.35
2022-10-11T08:38:58.902Z,5.72
2022-10-11T08:41:39.384Z,7.47
2022-10-11T08:45:08.998Z,6.63
2022-10-11T08:47:36.461Z,6.72
2022-10-11T08:50:19.843Z,5.60
2022-10-11T08:53:04.753Z,5.53
2022-10-11T08:55:40.407Z,7.03
2022-10-11T08:58:15.071Z,6.15
2022-10-11T09:00:46.261Z,5.47
2022-10-11T09:03:25.507Z,5.95
2022-10-11T09:06:16.315Z,5.72
2022-10-11T09:09:43.205Z,6.28
2022-10-11T09:12:32.382Z,6.85
2022-10-11T09:15:42.364Z,6.10
2022-10-11T09:18:19.467Z,6.57
2022-10-11T09:20:58.804Z,6.78
2022-10-11T09:23:35.428Z,6.82
2022-10-11T09:26:11.173Z,6.43
2022-10-11T09:29:01.435Z,6.82
2022-10-11T09:31:30.208Z,7.47
2022-10-11T09:34:06.331Z,7.93
2022-10-11T09:36:57.112Z,7.45
2022-10-11T09:39:38.973Z,7.63
2022-10-11T09:42:12.173Z,8.20
2022-10-11T09:44:51.854Z,7.50
2022-10-11T09:47:25.135Z,8.52
2022-10-11T09:50:13.876Z,8.70
2022-10-11T09:52:58.101Z,8.43
2022-10-11T09:55:33.936Z,9.10
2022-10-11T09:58:02.266Z,7.25
2022-10-11T10:00:33.893Z,9.52
2022-10-11T10:03:04.680Z,8.73
2022-10-11T10:05:36.918Z,8.23
2022-10-11T10:08:09.788Z,7.82
2022-10-11T10:10:55.856Z,7.60
2022-10-11T10:13:56.798Z,8.40
2022-10-11T10:16:34.805Z,7.70
2022-10-11T10:19:24.123Z,8.25
2022-10-11T10:21:55.461Z,8.75
2022-10-11T10:24:40.512Z,8.68
2022-10-11T10:27:14.281Z,9.15
2022-10-11T10:29:42.161Z,8.65
2022-10-11T10:32:22.538Z,8.85
2022-10-11T10:35:07.518Z,8.68
2022-10-11T10:37:59.536Z,8.70
2022-10-11T10:41:17.875Z,9.13
2022-10-11T10:43:54.244Z,8.20
2022-10-11T10:46:40.227Z,9.15
2022-10-11T10:49:48.919Z,10.90
2022-10-11T10:52:50.632Z,11.43
2022-10-11T10:55:44.557Z,10.90
2022-10-11T10:58:56.523Z,11.25
2022-10-11T11:01:29.431Z,12.85
2022-10-11T11:03:59.726Z,11.77
2022-10-11T11:06:54.118Z,12.00
2022-10-11T11:10:07.132Z,12.02
2022-10-11T11:12:55.566Z,12.93
2022-10-11T11:15:48.422Z,13.80
2022-10-11T11:18:37.092Z,14.40
2022-10-11T11:21:48.180Z,16.73
2022-10-11T11:24:58.393Z,15.05
2022-10-11T11:27:51.033Z,16.00
2022-10-11T11:30:45.144Z,14.30
2022-10-11T11:33:49.150Z,15.80
2022-10-11T11:36:43.394Z,16.70
2022-10-11T11:39:36.797Z,17.13
2022-10-11T11:42:31.809Z,16.33
2022-10-11T11:45:23.686Z,18.08
2022-10-11T11:48:11.785Z,17.83
2022-10-11T11:50:47.094Z,18.40
2022-10-11T11:53:25.146Z,19.60
2022-10-11T11:56:07.350Z,18.05
2022-10-11T11:59:23.486Z,17.70
2022-10-11T12:02:23.699Z,22.15
2022-10-11T12:04:52.408Z,21.73
2022-10-11T12:07:23.796Z,22.37
2022-10-11T12:10:18.573Z,22.55
2022-10-11T12:12:46.303Z,23.27
2022-10-11T12:15:26.205Z,25.98
2022-10-11T12:17:53.705Z,27.02
2022-10-11T12:20:29.987Z,25.00
2022-10-11T12:23:05.777Z,27.42
2022-10-11T12:25:44.674Z,25.80
2022-10-11T12:28:43.035Z,27.23
2022-10-11T12:31:26.726Z,26.42
2022-10-11T12:37:20.337Z,26.85
2022-10-11T12:42:36.947Z,26.65
2022-10-11T12:45:14.062Z,25.90
2022-10-11T12:48:04.068Z,26.25
2022-10-11T12:50:37.309Z,24.80
2022-10-11T12:54:08.221Z,23.83
2022-10-11T12:57:17.677Z,22.60
2022-10-11T12:59:49.316Z,19.35
2022-10-11T13:02:36.370Z,18.42
2022-10-11T13:05:26.639Z,17.90
2022-10-11T13:07:58.751Z,17.48
2022-10-11T13:10:53.939Z,16.75
2022-10-11T13:13:32.129Z,17.27
2022-10-11T13:16:21.474Z,17.30
2022-10-11T13:21:29.716Z,18.23
2022-10-11T13:24:18.965Z,17.85
2022-10-11T13:26:50.541Z,19.38
2022-10-11T13:29:39.725Z,16.88
2022-10-11T13:32:23.864Z,17.30
2022-10-11T13:34:58.620Z,16.25
2022-10-11T13:37:29.887Z,15.45
2022-10-11T13:39:58.562Z,16.63
2022-10-11T13:42:31.394Z,17.08
2022-10-11T13:45:00.543Z,17.38
2022-10-11T13:47:31.604Z,18.92
2022-10-11T13:50:17.562Z,19.00
2022-10-11T13:53:08.470Z,19.73
2022-10-11T13:55:59.906Z,19.65
2022-10-11T13:58:46.877Z,17.63
2022-10-11T14:01:40.734Z,17.38
2022-10-11T14:04:12.778Z,18.85
2022-10-11T14:06:50.825Z,18.27
2022-10-11T14:09:38.952Z,17.20
2022-10-11T14:12:33.568Z,18.70
2022-10-11T14:15:04.783Z,17.55
2022-10-11T14:17:45.655Z,19.25
2022-10-11T14:20:39.681Z,20.70
2022-10-11T14:23:07.846Z,21.80
2022-10-11T14:25:35.693Z,22.45
2022-10-11T14:28:05.742Z,23.33
2022-10-11T14:30:33.483Z,22.58
2022-10-11T14:33:02.665Z,22.65
2022-10-11T14:35:35.033Z,24.08
2022-10-11T14:38:02.805Z,23.58
2022-10-11T14:40:31.876Z,23.67
2022-10-11T14:42:59.480Z,24.65
2022-10-11T14:45:28.381Z,24.48
2022-10-11T14:47:56.589Z,25.77
2022-10-11T14:50:52.751Z,26.40
2022-10-11T14:53:20.287Z,27.27
2022-10-11T14:55:48.409Z,28.13
2022-10-11T14:58:17.902Z,28.08
2022-10-11T15:00:46.302Z,26.38
2022-10-11T15:03:15.471Z,28.88
2022-10-11T15:05:43.033Z,26.33
2022-10-11T15:08:14.861Z,28.27
2022-10-11T15:10:43.700Z,28.75
2022-10-11T15:13:11.289Z,28.90
2022-10-11T15:15:41.495Z,27.27
2022-10-11T15:18:17.664Z,30.20
2022-10-11T15:20:46.671Z,30.35
2022-10-11T15:23:14.509Z,29.05
2022-10-11T15:25:42.781Z,29.35
2022-10-11T15:28:28.095Z,42.85
2022-10-11T15:30:57.081Z,36.55
2022-10-11T15:33:25.375Z,33.80
2022-10-11T15:38:25.332Z,35.38
2022-10-11T15:40:54.211Z,34.65
2022-10-11T15:43:24.932Z,35.92
2022-10-11T15:45:54.371Z,34.95
2022-10-11T15:48:26.355Z,34.13
2022-10-11T15:50:54.907Z,31.58
2022-10-11T15:53:31.068Z,32.13
2022-10-11T15:56:07.202Z,29.80
2022-10-11T15:58:39.289Z,30.60
2022-10-11T16:01:19.898Z,32.80
2022-10-11T16:03:49.884Z,30.58
2022-10-11T16:06:19.746Z,31.95
2022-10-11T16:08:48.059Z,32.13
2022-10-11T16:11:16.124Z,34.08
2022-10-11T16:13:43.636Z,32.78
2022-10-11T16:16:12.299Z,33.97
2022-10-11T16:18:40.754Z,32.70
2022-10-11T16:21:13.365Z,33.25
2022-10-11T16:23:41.111Z,36.10
2022-10-11T16:26:13.805Z,38.22
2022-10-11T16:28:42.642Z,38.15
2022-10-11T16:31:18.171Z,39.77
2022-10-11T16:33:46.419Z,39.28
2022-10-11T16:36:40.570Z,38.70
2022-10-11T16:39:18.376Z,38.00
2022-10-11T16:41:47.244Z,37.47
2022-10-11T16:44:17.891Z,38.65
2022-10-11T16:46:48.350Z,38.15
2022-10-11T16:49:22.131Z,38.47
2022-10-11T16:51:55.955Z,39.33
2022-10-11T16:54:23.777Z,38.60
2022-10-11T16:56:51.490Z,41.78
2022-10-11T16:59:20.027Z,43.75
2022-10-11T17:01:47.851Z,41.55
2022-10-11T17:04:16.089Z,45.13
2022-10-11T17:06:44.037Z,43.53
2022-10-11T17:09:12.670Z,46.92
2022-10-11T17:11:40.830Z,44.67
2022-10-11T17:14:09.255Z,46.20
2022-10-11T17:16:36.748Z,46.17
2022-10-11T17:19:05.478Z,45.40
2022-10-11T17:21:32.922Z,47.88
2022-10-11T17:24:00.713Z,46.10
2022-10-11T17:26:28.321Z,54.38
2022-10-11T17:28:59.563Z,53.47
2022-10-11T17:31:30.458Z,55.95
2022-10-11T17:34:00.952Z,56.30
2022-10-11T17:36:34.155Z,54.40
2022-10-11T17:39:07.107Z,46.15
2022-10-11T17:41:35.694Z,47.70
2022-10-11T17:44:04.389Z,44.85
2022-10-11T17:46:32.882Z,47.25
2022-10-11T17:49:05.553Z,47.72
2022-10-11T17:51:34.170Z,46.75
2022-10-11T17:54:02.407Z,49.75
2022-10-11T17:56:35.200Z,47.90
2022-10-11T17:59:06.472Z,48.33
2022-10-11T18:01:34.441Z,49.70
2022-10-11T18:06:39.758Z,46.50
2022-10-11T18:09:07.440Z,45.85
2022-10-11T18:11:35.406Z,48.08
2022-10-11T18:14:04.568Z,47.45
2022-10-11T18:19:04.887Z,48.53
2022-10-11T18:21:34.927Z,58.65
2022-10-11T18:24:15.066Z,63.17
2022-10-11T18:26:46.951Z,58.75
2022-10-11T18:29:14.640Z,63.17
2022-10-11T18:31:42.768Z,67.93
2022-10-11T18:34:13.018Z,65.60
2022-10-11T18:36:40.998Z,67.50
2022-10-11T18:39:13.360Z,66.65
2022-10-11T18:41:44.572Z,66.45
2022-10-11T18:44:15.206Z,66.65
2022-10-11T18:46:44.147Z,64.57
2022-10-11T18:49:13.547Z,66.20
2022-10-11T18:54:15.342Z,65.80
2022-10-11T18:56:46.250Z,66.07
2022-10-11T18:59:14.102Z,69.22
2022-10-11T19:01:44.748Z,69.53
2022-10-11T19:04:17.963Z,68.10
2022-10-11T19:06:48.768Z,69.72
2022-10-11T19:09:22.531Z,67.65
2022-10-11T19:11:53.674Z,68.63
2022-10-11T19:14:28.471Z,68.03
2022-10-11T19:16:57.219Z,71.57
2022-10-11T19:19:29.673Z,73.23
2022-10-11T19:21:58.485Z,71.38
2022-10-11T19:24:29.270Z,70.32
2022-10-11T19:27:02.609Z,71.40
2022-10-11T19:29:31.566Z,69.65
2022-10-11T19:32:03.006Z,71.18
2022-10-11T19:34:32.718Z,70.53
2022-10-11T19:39:30.104Z,68.90
2022-10-11T19:41:57.926Z,70.65
2022-10-11T19:44:25.548Z,71.70
2022-10-11T19:46:53.455Z,69.30
2022-10-11T19:49:25.239Z,73.30
2022-10-11T19:51:55.226Z,72.53
2022-10-11T19:54:23.916Z,71.45
2022-10-11T19:56:51.503Z,73.00
2022-10-11T19:59:19.710Z,71.63
2022-10-11T20:01:52.268Z,70.57
2022-10-11T20:04:50.981Z,69.85
2022-10-11T20:07:08.752Z,70.10
2022-10-11T20:09:36.739Z,73.35
2022-10-11T20:12:05.158Z,74.18
2022-10-11T20:14:33.023Z,89.10
2022-10-11T20:17:00.609Z,75.30
2022-10-11T20:19:31.012Z,73.20
2022-10-11T20:22:00.580Z,76.22
2022-10-11T20:27:06.332Z,72.95
2022-10-11T20:29:35.424Z,73.30
2022-10-11T20:32:02.966Z,69.40
2022-10-11T20:34:31.153Z,70.72
2022-10-11T20:36:58.768Z,69.20
2022-10-11T20:39:26.987Z,69.53
2022-10-11T20:41:54.968Z,65.10
2022-10-11T20:44:23.125Z,69.60
2022-10-11T20:46:50.727Z,64.47
2022-10-11T20:49:19.987Z,67.35
2022-10-11T20:51:48.610Z,66.25
2022-10-11T20:54:16.907Z,68.63
2022-10-11T20:56:45.028Z,67.13
2022-10-11T20:59:12.985Z,65.53
2022-10-11T21:01:41.990Z,64.47
2022-10-11T21:04:19.068Z,62.75
2022-10-11T21:06:48.986Z,61.78
2022-10-11T21:09:17.433Z,63.08
2022-10-11T21:11:45.574Z,59.42
2022-10-11T21:14:13.497Z,62.75
2022-10-11T21:16:41.341Z,62.40
2022-10-11T21:19:15.175Z,61.92
2022-10-11T21:21:43.975Z,62.75
2022-10-11T21:24:11.546Z,63.83
2022-10-11T21:26:39.395Z,64.22
2022-10-11T21:29:08.471Z,65.55
2022-10-11T21:31:36.442Z,65.00
2022-10-11T21:34:05.291Z,64.40
2022-10-11T21:36:33.803Z,64.97
2022-10-11T21:39:01.532Z,64.90
2022-10-11T21:41:30.418Z,62.45
2022-10-11T21:43:58.606Z,65.45
2022-10-11T21:46:54.216Z,66.63
2022-10-11T21:49:18.612Z,67.03
2022-10-11T21:51:46.193Z,64.47
2022-10-11T21:54:14.735Z,64.77
2022-10-11T21:56:42.522Z,62.67
2022-10-11T21:59:12.522Z,65.13
2022-10-11T22:01:41.937Z,65.72
2022-10-11T22:04:10.915Z,64.88
2022-10-11T22:06:39.487Z,61.22
2022-10-11T22:09:08.915Z,64.20
2022-10-11T22:11:37.395Z,62.70
2022-10-11T22:14:05.846Z,63.00
2022-10-11T22:16:34.776Z,63.88
2022-10-11T22:19:03.069Z,62.92
2022-10-11T22:21:31.827Z,63.20
2022-10-11T22:24:01.084Z,61.33
2022-10-11T22:26:31.584Z,63.00
2022-10-11T22:29:00.704Z,66.35
2022-10-11T22:31:30.935Z,66.43
2022-10-11T22:34:01.174Z,64.20
2022-10-11T22:36:30.643Z,62.70
2022-10-11T22:38:58.725Z,64.70
2022-10-11T22:41:26.690Z,65.55
2022-10-11T22:43:54.347Z,63.47
2022-10-11T22:46:21.831Z,64.95
2022-10-11T22:48:49.616Z,64.53
2022-10-11T22:51:17.336Z,67.10
2022-10-11T22:53:44.929Z,68.18
2022-10-11T22:56:12.721Z,66.97
2022-10-11T22:58:40.179Z,63.42
2022-10-11T23:01:10.509Z,64.60
2022-10-11T23:03:38.683Z,67.85
2022-10-11T23:06:06.846Z,66.75
2022-10-11T23:08:34.393Z,65.28
2022-10-11T23:11:07.204Z,64.82
2022-10-11T23:13:35.547Z,64.57
2022-10-11T23:16:11.781Z,67.78
2022-10-11T23:18:39.841Z,65.97
2022-10-11T23:21:08.379Z,66.10
2022-10-11T23:23:36.020Z,66.03
2022-10-11T23:26:06.024Z,65.57
2022-10-11T23:28:34.770Z,65.03
2022-10-11T23:31:08.426Z,65.97
2022-10-11T23:33:36.434Z,67.50
2022-10-11T23:36:04.330Z,66.50
2022-10-11T23:38:31.961Z,69.32
2022-10-11T23:40:59.713Z,66.85
2022-10-11T23:43:27.227Z,66.53
2022-10-11T23:45:55.891Z,73.70
2022-10-11T23:48:23.769Z,69.30
2022-10-11T23:50:51.326Z,69.35
2022-10-11T23:53:18.886Z,71.43
2022-10-11T23:55:46.696Z,71.50
2022-10-11T23:58:14.161Z,76.78
